sensor_id;sensor_type;location;lat;lon;timestamp;P1;durP1;ratioP1;P2;durP2;ratioP2
57047;SDS011;42934;54.294;18.598;2023-08-06T00:01:01;6.97;;;2.90;;
57047;SDS011;42934;54.294;18.598;2023-08-06T00:03:47;4.78;;;3.03;;
57047;SDS011;42934;54.294;18.598;2023-08-06T00:06:18;5.20;;;2.88;;
57047;SDS011;42934;54.294;18.598;2023-08-06T00:08:47;8.27;;;3.15;;
57047;SDS011;42934;54.294;18.598;2023-08-06T00:11:16;5.20;;;3.15;;
57047;SDS011;42934;54.294;18.598;2023-08-06T00:13:46;3.97;;;3.08;;
57047;SDS011;42934;54.294;18.598;2023-08-06T00:16:15;6.10;;;2.75;;
57047;SDS011;42934;54.294;18.598;2023-08-06T00:18:44;5.50;;;2.88;;
57047;SDS011;42934;54.294;18.598;2023-08-06T00:21:14;5.93;;;3.22;;
57047;SDS011;42934;54.294;18.598;2023-08-06T00:23:44;4.73;;;2.90;;
57047;SDS011;42934;54.294;18.598;2023-08-06T00:26:32;8.35;;;3.50;;
57047;SDS011;42934;54.294;18.598;2023-08-06T00:29:01;5.90;;;3.40;;
57047;SDS011;42934;54.294;18.598;2023-08-06T00:31:31;8.77;;;3.55;;
57047;SDS011;42934;54.294;18.598;2023-08-06T00:34:00;7.35;;;4.10;;
57047;SDS011;42934;54.294;18.598;2023-08-06T00:36:29;10.10;;;4.00;;
57047;SDS011;42934;54.294;18.598;2023-08-06T00:39:01;8.05;;;3.80;;
57047;SDS011;42934;54.294;18.598;2023-08-06T00:41:31;7.18;;;3.65;;
57047;SDS011;42934;54.294;18.598;2023-08-06T00:44:00;7.90;;;3.70;;
57047;SDS011;42934;54.294;18.598;2023-08-06T00:46:29;9.40;;;3.67;;
57047;SDS011;42934;54.294;18.598;2023-08-06T00:51:29;6.30;;;3.30;;
57047;SDS011;42934;54.294;18.598;2023-08-06T00:53:59;6.85;;;2.92;;
57047;SDS011;42934;54.294;18.598;2023-08-06T00:56:30;5.35;;;3.03;;
57047;SDS011;42934;54.294;18.598;2023-08-06T00:59:02;5.82;;;3.20;;
57047;SDS011;42934;54.294;18.598;2023-08-06T01:01:32;6.00;;;3.35;;
57047;SDS011;42934;54.294;18.598;2023-08-06T01:04:01;7.80;;;3.28;;
57047;SDS011;42934;54.294;18.598;2023-08-06T01:06:34;6.80;;;3.50;;
57047;SDS011;42934;54.294;18.598;2023-08-06T01:09:11;8.68;;;3.45;;
57047;SDS011;42934;54.294;18.598;2023-08-06T01:11:52;8.27;;;3.13;;
57047;SDS011;42934;54.294;18.598;2023-08-06T01:14:33;6.93;;;3.00;;
57047;SDS011;42934;54.294;18.598;2023-08-06T01:17:12;12.43;;;3.53;;
57047;SDS011;42934;54.294;18.598;2023-08-06T01:19:42;8.18;;;2.80;;
57047;SDS011;42934;54.294;18.598;2023-08-06T01:22:12;7.03;;;3.13;;
57047;SDS011;42934;54.294;18.598;2023-08-06T01:24:41;5.68;;;3.05;;
57047;SDS011;42934;54.294;18.598;2023-08-06T01:27:18;5.53;;;2.97;;
57047;SDS011;42934;54.294;18.598;2023-08-06T01:29:56;6.65;;;2.85;;
57047;SDS011;42934;54.294;18.598;2023-08-06T01:32:31;7.90;;;3.22;;
57047;SDS011;42934;54.294;18.598;2023-08-06T01:35:03;4.28;;;3.05;;
57047;SDS011;42934;54.294;18.598;2023-08-06T01:37:34;5.25;;;2.92;;
57047;SDS011;42934;54.294;18.598;2023-08-06T01:40:05;7.88;;;3.10;;
57047;SDS011;42934;54.294;18.598;2023-08-06T01:42:37;9.98;;;3.17;;
57047;SDS011;42934;54.294;18.598;2023-08-06T01:45:07;7.43;;;3.47;;
57047;SDS011;42934;54.294;18.598;2023-08-06T01:47:37;5.88;;;2.70;;
57047;SDS011;42934;54.294;18.598;2023-08-06T01:50:07;4.67;;;3.30;;
57047;SDS011;42934;54.294;18.598;2023-08-06T01:52:38;5.88;;;2.97;;
57047;SDS011;42934;54.294;18.598;2023-08-06T01:55:07;8.05;;;2.95;;
57047;SDS011;42934;54.294;18.598;2023-08-06T01:57:37;6.40;;;2.88;;
57047;SDS011;42934;54.294;18.598;2023-08-06T02:00:07;5.53;;;2.57;;
57047;SDS011;42934;54.294;18.598;2023-08-06T02:02:39;6.55;;;2.85;;
57047;SDS011;42934;54.294;18.598;2023-08-06T02:05:09;6.90;;;2.90;;
57047;SDS011;42934;54.294;18.598;2023-08-06T02:07:40;6.88;;;2.83;;
57047;SDS011;42934;54.294;18.598;2023-08-06T02:10:10;5.63;;;2.85;;
57047;SDS011;42934;54.294;18.598;2023-08-06T02:15:09;5.82;;;2.60;;
57047;SDS011;42934;54.294;18.598;2023-08-06T02:17:38;5.78;;;2.83;;
57047;SDS011;42934;54.294;18.598;2023-08-06T02:20:08;5.50;;;2.67;;
57047;SDS011;42934;54.294;18.598;2023-08-06T02:22:38;4.75;;;2.50;;
57047;SDS011;42934;54.294;18.598;2023-08-06T02:25:08;8.23;;;3.13;;
57047;SDS011;42934;54.294;18.598;2023-08-06T02:27:38;4.88;;;2.88;;
57047;SDS011;42934;54.294;18.598;2023-08-06T02:30:07;6.82;;;3.35;;
57047;SDS011;42934;54.294;18.598;2023-08-06T02:32:38;6.18;;;2.75;;
57047;SDS011;42934;54.294;18.598;2023-08-06T02:35:08;5.93;;;3.00;;
57047;SDS011;42934;54.294;18.598;2023-08-06T02:37:38;9.70;;;2.95;;
57047;SDS011;42934;54.294;18.598;2023-08-06T02:40:09;4.97;;;2.65;;
57047;SDS011;42934;54.294;18.598;2023-08-06T02:42:39;8.65;;;2.97;;
57047;SDS011;42934;54.294;18.598;2023-08-06T02:45:08;8.73;;;3.05;;
57047;SDS011;42934;54.294;18.598;2023-08-06T02:47:38;6.28;;;2.83;;
57047;SDS011;42934;54.294;18.598;2023-08-06T02:50:08;6.90;;;2.90;;
57047;SDS011;42934;54.294;18.598;2023-08-06T02:52:37;3.88;;;2.70;;
57047;SDS011;42934;54.294;18.598;2023-08-06T02:55:10;5.32;;;3.35;;
57047;SDS011;42934;54.294;18.598;2023-08-06T02:57:43;6.32;;;2.78;;
57047;SDS011;42934;54.294;18.598;2023-08-06T03:00:12;5.80;;;2.80;;
57047;SDS011;42934;54.294;18.598;2023-08-06T03:02:42;3.95;;;3.08;;
57047;SDS011;42934;54.294;18.598;2023-08-06T03:07:52;5.03;;;3.30;;
57047;SDS011;42934;54.294;18.598;2023-08-06T03:10:26;6.28;;;3.53;;
57047;SDS011;42934;54.294;18.598;2023-08-06T03:13:00;9.18;;;3.95;;
57047;SDS011;42934;54.294;18.598;2023-08-06T03:15:29;7.47;;;3.47;;
57047;SDS011;42934;54.294;18.598;2023-08-06T03:17:59;11.55;;;4.22;;
57047;SDS011;42934;54.294;18.598;2023-08-06T03:20:28;7.27;;;4.13;;
57047;SDS011;42934;54.294;18.598;2023-08-06T03:22:58;6.78;;;4.10;;
57047;SDS011;42934;54.294;18.598;2023-08-06T03:25:30;9.80;;;3.88;;
57047;SDS011;42934;54.294;18.598;2023-08-06T03:28:03;7.55;;;4.18;;
57047;SDS011;42934;54.294;18.598;2023-08-06T03:30:34;8.48;;;4.18;;
57047;SDS011;42934;54.294;18.598;2023-08-06T03:33:03;9.75;;;4.32;;
57047;SDS011;42934;54.294;18.598;2023-08-06T03:35:32;5.80;;;3.75;;
57047;SDS011;42934;54.294;18.598;2023-08-06T03:38:02;9.15;;;3.88;;
57047;SDS011;42934;54.294;18.598;2023-08-06T03:40:34;9.65;;;3.97;;
57047;SDS011;42934;54.294;18.598;2023-08-06T03:43:04;8.20;;;4.00;;
57047;SDS011;42934;54.294;18.598;2023-08-06T03:45:33;7.78;;;4.15;;
57047;SDS011;42934;54.294;18.598;2023-08-06T03:48:03;8.88;;;4.10;;
57047;SDS011;42934;54.294;18.598;2023-08-06T03:50:32;8.40;;;4.07;;
57047;SDS011;42934;54.294;18.598;2023-08-06T03:53:02;11.27;;;4.18;;
57047;SDS011;42934;54.294;18.598;2023-08-06T03:55:32;10.63;;;4.50;;
57047;SDS011;42934;54.294;18.598;2023-08-06T03:58:02;10.68;;;4.90;;
57047;SDS011;42934;54.294;18.598;2023-08-06T04:00:31;10.50;;;5.00;;
57047;SDS011;42934;54.294;18.598;2023-08-06T04:03:01;10.35;;;4.80;;
57047;SDS011;42934;54.294;18.598;2023-08-06T04:05:31;10.38;;;5.45;;
57047;SDS011;42934;54.294;18.598;2023-08-06T04:08:00;12.57;;;5.40;;
57047;SDS011;42934;54.294;18.598;2023-08-06T04:10:30;13.60;;;5.13;;
57047;SDS011;42934;54.294;18.598;2023-08-06T04:13:01;10.40;;;4.97;;
57047;SDS011;42934;54.294;18.598;2023-08-06T04:15:30;7.57;;;5.15;;
57047;SDS011;42934;54.294;18.598;2023-08-06T04:18:01;13.50;;;5.63;;
57047;SDS011;42934;54.294;18.598;2023-08-06T04:20:30;8.47;;;4.83;;
57047;SDS011;42934;54.294;18.598;2023-08-06T04:23:05;8.18;;;4.70;;
57047;SDS011;42934;54.294;18.598;2023-08-06T04:25:36;10.55;;;4.93;;
57047;SDS011;42934;54.294;18.598;2023-08-06T04:28:06;10.88;;;5.13;;
57047;SDS011;42934;54.294;18.598;2023-08-06T04:30:36;8.77;;;4.97;;
57047;SDS011;42934;54.294;18.598;2023-08-06T04:33:07;13.52;;;4.78;;
57047;SDS011;42934;54.294;18.598;2023-08-06T04:35:37;13.75;;;5.97;;
57047;SDS011;42934;54.294;18.598;2023-08-06T04:38:06;12.13;;;5.82;;
57047;SDS011;42934;54.294;18.598;2023-08-06T04:40:37;11.32;;;5.20;;
57047;SDS011;42934;54.294;18.598;2023-08-06T04:43:07;11.13;;;5.38;;
57047;SDS011;42934;54.294;18.598;2023-08-06T04:45:36;10.20;;;5.00;;
57047;SDS011;42934;54.294;18.598;2023-08-06T04:48:05;11.30;;;5.38;;
57047;SDS011;42934;54.294;18.598;2023-08-06T04:50:35;10.13;;;6.15;;
57047;SDS011;42934;54.294;18.598;2023-08-06T04:53:04;12.98;;;6.15;;
57047;SDS011;42934;54.294;18.598;2023-08-06T04:55:33;11.57;;;5.97;;
57047;SDS011;42934;54.294;18.598;2023-08-06T04:58:04;13.23;;;5.80;;
57047;SDS011;42934;54.294;18.598;2023-08-06T05:00:33;14.75;;;6.32;;
57047;SDS011;42934;54.294;18.598;2023-08-06T05:03:03;15.57;;;6.05;;
57047;SDS011;42934;54.294;18.598;2023-08-06T05:08:02;11.98;;;6.55;;
57047;SDS011;42934;54.294;18.598;2023-08-06T05:10:31;13.18;;;6.20;;
57047;SDS011;42934;54.294;18.598;2023-08-06T05:13:00;17.67;;;6.45;;
57047;SDS011;42934;54.294;18.598;2023-08-06T05:15:31;14.80;;;5.90;;
57047;SDS011;42934;54.294;18.598;2023-08-06T05:18:00;8.75;;;5.68;;
57047;SDS011;42934;54.294;18.598;2023-08-06T05:20:29;11.90;;;5.87;;
57047;SDS011;42934;54.294;18.598;2023-08-06T05:22:59;10.13;;;5.22;;
57047;SDS011;42934;54.294;18.598;2023-08-06T05:25:28;12.00;;;4.83;;
57047;SDS011;42934;54.294;18.598;2023-08-06T05:27:58;7.32;;;5.00;;
57047;SDS011;42934;54.294;18.598;2023-08-06T05:30:28;9.30;;;4.72;;
57047;SDS011;42934;54.294;18.598;2023-08-06T05:32:59;8.98;;;4.50;;
57047;SDS011;42934;54.294;18.598;2023-08-06T05:35:28;11.07;;;4.63;;
57047;SDS011;42934;54.294;18.598;2023-08-06T05:37:57;9.43;;;4.80;;
57047;SDS011;42934;54.294;18.598;2023-08-06T05:40:27;6.50;;;4.35;;
57047;SDS011;42934;54.294;18.598;2023-08-06T05:42:56;9.48;;;4.95;;
57047;SDS011;42934;54.294;18.598;2023-08-06T05:45:25;14.60;;;5.75;;
57047;SDS011;42934;54.294;18.598;2023-08-06T05:47:56;12.85;;;6.40;;
57047;SDS011;42934;54.294;18.598;2023-08-06T05:50:25;11.77;;;5.60;;
57047;SDS011;42934;54.294;18.598;2023-08-06T05:52:55;11.85;;;5.35;;
57047;SDS011;42934;54.294;18.598;2023-08-06T05:55:27;10.23;;;5.15;;
57047;SDS011;42934;54.294;18.598;2023-08-06T05:57:58;13.30;;;5.07;;
57047;SDS011;42934;54.294;18.598;2023-08-06T06:00:27;10.52;;;4.82;;
57047;SDS011;42934;54.294;18.598;2023-08-06T06:02:58;11.73;;;4.80;;
57047;SDS011;42934;54.294;18.598;2023-08-06T06:05:28;7.22;;;4.88;;
57047;SDS011;42934;54.294;18.598;2023-08-06T06:07:58;10.25;;;5.38;;
57047;SDS011;42934;54.294;18.598;2023-08-06T06:10:27;10.68;;;5.65;;
57047;SDS011;42934;54.294;18.598;2023-08-06T06:12:56;8.50;;;4.88;;
57047;SDS011;42934;54.294;18.598;2023-08-06T06:15:25;14.55;;;5.00;;
57047;SDS011;42934;54.294;18.598;2023-08-06T06:17:55;13.55;;;4.80;;
57047;SDS011;42934;54.294;18.598;2023-08-06T06:20:26;9.40;;;5.03;;
57047;SDS011;42934;54.294;18.598;2023-08-06T06:22:55;10.13;;;4.95;;
57047;SDS011;42934;54.294;18.598;2023-08-06T06:25:24;9.30;;;5.10;;
57047;SDS011;42934;54.294;18.598;2023-08-06T06:27:54;16.27;;;7.72;;
57047;SDS011;42934;54.294;18.598;2023-08-06T06:30:23;12.77;;;6.15;;
57047;SDS011;42934;54.294;18.598;2023-08-06T06:32:52;17.52;;;6.55;;
57047;SDS011;42934;54.294;18.598;2023-08-06T06:35:21;17.33;;;7.20;;
57047;SDS011;42934;54.294;18.598;2023-08-06T06:37:52;18.40;;;7.40;;
57047;SDS011;42934;54.294;18.598;2023-08-06T06:40:21;12.05;;;6.47;;
57047;SDS011;42934;54.294;18.598;2023-08-06T06:42:51;16.13;;;7.30;;
57047;SDS011;42934;54.294;18.598;2023-08-06T06:45:20;12.07;;;6.97;;
57047;SDS011;42934;54.294;18.598;2023-08-06T06:47:49;15.73;;;6.47;;
57047;SDS011;42934;54.294;18.598;2023-08-06T06:50:18;12.67;;;6.70;;
57047;SDS011;42934;54.294;18.598;2023-08-06T06:52:48;16.05;;;6.60;;
57047;SDS011;42934;54.294;18.598;2023-08-06T06:55:18;12.23;;;6.00;;
57047;SDS011;42934;54.294;18.598;2023-08-06T06:57:48;10.73;;;5.70;;
57047;SDS011;42934;54.294;18.598;2023-08-06T07:00:17;15.20;;;6.73;;
57047;SDS011;42934;54.294;18.598;2023-08-06T07:02:46;12.85;;;6.47;;
57047;SDS011;42934;54.294;18.598;2023-08-06T07:05:16;8.93;;;5.10;;
57047;SDS011;42934;54.294;18.598;2023-08-06T07:07:45;11.98;;;5.03;;
57047;SDS011;42934;54.294;18.598;2023-08-06T07:10:14;12.97;;;4.70;;
57047;SDS011;42934;54.294;18.598;2023-08-06T07:12:45;8.07;;;4.55;;
57047;SDS011;42934;54.294;18.598;2023-08-06T07:15:14;9.18;;;4.88;;
57047;SDS011;42934;54.294;18.598;2023-08-06T07:20:13;8.43;;;5.03;;
57047;SDS011;42934;54.294;18.598;2023-08-06T07:22:43;12.23;;;6.30;;
57047;SDS011;42934;54.294;18.598;2023-08-06T07:25:12;10.07;;;6.72;;
57047;SDS011;42934;54.294;18.598;2023-08-06T07:27:42;12.85;;;7.47;;
57047;SDS011;42934;54.294;18.598;2023-08-06T07:30:12;11.80;;;8.00;;
57047;SDS011;42934;54.294;18.598;2023-08-06T07:32:42;12.95;;;7.80;;
57047;SDS011;42934;54.294;18.598;2023-08-06T07:35:11;13.17;;;8.33;;
57047;SDS011;42934;54.294;18.598;2023-08-06T07:37:41;18.88;;;8.85;;
57047;SDS011;42934;54.294;18.598;2023-08-06T07:40:11;14.00;;;9.30;;
57047;SDS011;42934;54.294;18.598;2023-08-06T07:45:11;10.35;;;8.18;;
57047;SDS011;42934;54.294;18.598;2023-08-06T07:47:42;17.77;;;8.65;;
57047;SDS011;42934;54.294;18.598;2023-08-06T07:50:11;12.37;;;7.77;;
57047;SDS011;42934;54.294;18.598;2023-08-06T07:52:41;10.68;;;7.57;;
57047;SDS011;42934;54.294;18.598;2023-08-06T07:55:10;9.88;;;7.03;;
57047;SDS011;42934;54.294;18.598;2023-08-06T07:57:40;8.75;;;6.07;;
57047;SDS011;42934;54.294;18.598;2023-08-06T08:00:11;11.45;;;6.63;;
57047;SDS011;42934;54.294;18.598;2023-08-06T08:02:40;9.52;;;6.50;;
57047;SDS011;42934;54.294;18.598;2023-08-06T08:05:10;10.05;;;6.32;;
57047;SDS011;42934;54.294;18.598;2023-08-06T08:07:39;9.25;;;6.03;;
57047;SDS011;42934;54.294;18.598;2023-08-06T08:10:08;15.53;;;7.27;;
57047;SDS011;42934;54.294;18.598;2023-08-06T08:12:38;10.80;;;7.55;;
57047;SDS011;42934;54.294;18.598;2023-08-06T08:15:07;12.52;;;7.20;;
57047;SDS011;42934;54.294;18.598;2023-08-06T08:20:08;7.25;;;5.95;;
57047;SDS011;42934;54.294;18.598;2023-08-06T08:22:38;11.25;;;5.97;;
57047;SDS011;42934;54.294;18.598;2023-08-06T08:25:07;8.63;;;6.80;;
57047;SDS011;42934;54.294;18.598;2023-08-06T08:27:37;13.23;;;7.07;;
57047;SDS011;42934;54.294;18.598;2023-08-06T08:30:06;9.33;;;7.60;;
57047;SDS011;42934;54.294;18.598;2023-08-06T08:32:36;11.57;;;7.25;;
57047;SDS011;42934;54.294;18.598;2023-08-06T08:35:07;13.40;;;8.53;;
57047;SDS011;42934;54.294;18.598;2023-08-06T08:37:39;15.65;;;8.68;;
57047;SDS011;42934;54.294;18.598;2023-08-06T08:40:08;13.73;;;8.43;;
57047;SDS011;42934;54.294;18.598;2023-08-06T08:42:38;15.07;;;8.23;;
57047;SDS011;42934;54.294;18.598;2023-08-06T08:45:10;12.40;;;8.15;;
57047;SDS011;42934;54.294;18.598;2023-08-06T08:47:42;16.13;;;9.38;;
57047;SDS011;42934;54.294;18.598;2023-08-06T08:50:15;14.07;;;9.18;;
57047;SDS011;42934;54.294;18.598;2023-08-06T08:52:46;13.70;;;8.50;;
57047;SDS011;42934;54.294;18.598;2023-08-06T08:55:18;12.02;;;8.13;;
57047;SDS011;42934;54.294;18.598;2023-08-06T08:57:50;15.18;;;8.48;;
57047;SDS011;42934;54.294;18.598;2023-08-06T09:00:19;15.80;;;9.93;;
57047;SDS011;42934;54.294;18.598;2023-08-06T09:02:48;11.23;;;8.68;;
57047;SDS011;42934;54.294;18.598;2023-08-06T09:05:20;10.43;;;8.68;;
57047;SDS011;42934;54.294;18.598;2023-08-06T09:07:51;13.57;;;8.13;;
57047;SDS011;42934;54.294;18.598;2023-08-06T09:10:22;11.45;;;8.32;;
57047;SDS011;42934;54.294;18.598;2023-08-06T09:15:23;12.82;;;8.70;;
57047;SDS011;42934;54.294;18.598;2023-08-06T09:17:53;12.57;;;8.15;;
57047;SDS011;42934;54.294;18.598;2023-08-06T09:20:25;14.27;;;8.27;;
57047;SDS011;42934;54.294;18.598;2023-08-06T09:22:54;10.88;;;8.55;;
57047;SDS011;42934;54.294;18.598;2023-08-06T09:25:24;11.40;;;8.50;;
57047;SDS011;42934;54.294;18.598;2023-08-06T09:27:55;13.52;;;8.32;;
57047;SDS011;42934;54.294;18.598;2023-08-06T09:30:29;12.13;;;7.93;;
57047;SDS011;42934;54.294;18.598;2023-08-06T09:32:59;10.45;;;8.27;;
57047;SDS011;42934;54.294;18.598;2023-08-06T09:35:30;12.32;;;8.90;;
57047;SDS011;42934;54.294;18.598;2023-08-06T09:38:06;12.73;;;9.20;;
57047;SDS011;42934;54.294;18.598;2023-08-06T09:40:38;11.75;;;8.60;;
57047;SDS011;42934;54.294;18.598;2023-08-06T09:43:07;12.02;;;8.35;;
57047;SDS011;42934;54.294;18.598;2023-08-06T09:45:39;11.48;;;8.90;;
57047;SDS011;42934;54.294;18.598;2023-08-06T09:48:10;12.15;;;8.50;;
57047;SDS011;42934;54.294;18.598;2023-08-06T09:50:40;12.33;;;7.60;;
57047;SDS011;42934;54.294;18.598;2023-08-06T09:53:10;10.40;;;7.38;;
57047;SDS011;42934;54.294;18.598;2023-08-06T09:55:39;10.70;;;7.63;;
57047;SDS011;42934;54.294;18.598;2023-08-06T09:58:09;8.55;;;7.15;;
57047;SDS011;42934;54.294;18.598;2023-08-06T10:00:38;10.00;;;6.75;;
57047;SDS011;42934;54.294;18.598;2023-08-06T10:03:08;12.35;;;7.60;;
57047;SDS011;42934;54.294;18.598;2023-08-06T10:05:43;10.77;;;7.18;;
57047;SDS011;42934;54.294;18.598;2023-08-06T10:08:15;9.23;;;6.97;;
57047;SDS011;42934;54.294;18.598;2023-08-06T10:10:44;9.20;;;7.40;;
57047;SDS011;42934;54.294;18.598;2023-08-06T10:15:45;12.75;;;7.40;;
57047;SDS011;42934;54.294;18.598;2023-08-06T10:18:15;13.27;;;8.77;;
57047;SDS011;42934;54.294;18.598;2023-08-06T10:20:49;10.00;;;8.30;;
57047;SDS011;42934;54.294;18.598;2023-08-06T10:23:20;10.05;;;8.55;;
57047;SDS011;42934;54.294;18.598;2023-08-06T10:26:05;9.65;;;8.65;;
57047;SDS011;42934;54.294;18.598;2023-08-06T10:28:34;9.23;;;8.35;;
57047;SDS011;42934;54.294;18.598;2023-08-06T10:31:04;11.48;;;9.23;;
57047;SDS011;42934;54.294;18.598;2023-08-06T10:33:41;11.35;;;9.13;;
57047;SDS011;42934;54.294;18.598;2023-08-06T10:36:12;11.38;;;8.93;;
57047;SDS011;42934;54.294;18.598;2023-08-06T10:38:46;10.98;;;8.73;;
57047;SDS011;42934;54.294;18.598;2023-08-06T10:41:22;11.20;;;9.48;;
57047;SDS011;42934;54.294;18.598;2023-08-06T10:44:05;11.35;;;9.65;;
57047;SDS011;42934;54.294;18.598;2023-08-06T10:46:36;12.63;;;9.95;;
57047;SDS011;42934;54.294;18.598;2023-08-06T10:49:06;14.05;;;9.70;;
57047;SDS011;42934;54.294;18.598;2023-08-06T10:51:37;13.13;;;9.70;;
57047;SDS011;42934;54.294;18.598;2023-08-06T10:54:06;11.85;;;10.18;;
57047;SDS011;42934;54.294;18.598;2023-08-06T10:56:39;14.87;;;10.37;;
57047;SDS011;42934;54.294;18.598;2023-08-06T10:59:09;14.50;;;9.55;;
57047;SDS011;42934;54.294;18.598;2023-08-06T11:01:38;13.77;;;10.23;;
57047;SDS011;42934;54.294;18.598;2023-08-06T11:04:07;13.85;;;9.70;;
57047;SDS011;42934;54.294;18.598;2023-08-06T11:06:44;12.10;;;10.40;;
57047;SDS011;42934;54.294;18.598;2023-08-06T11:09:20;11.30;;;9.70;;
57047;SDS011;42934;54.294;18.598;2023-08-06T11:11:49;13.17;;;10.27;;
57047;SDS011;42934;54.294;18.598;2023-08-06T11:14:19;11.65;;;10.40;;
57047;SDS011;42934;54.294;18.598;2023-08-06T11:16:48;12.43;;;10.53;;
57047;SDS011;42934;54.294;18.598;2023-08-06T11:19:18;12.27;;;10.70;;
57047;SDS011;42934;54.294;18.598;2023-08-06T11:21:49;11.82;;;10.45;;
57047;SDS011;42934;54.294;18.598;2023-08-06T11:24:19;11.57;;;9.40;;
57047;SDS011;42934;54.294;18.598;2023-08-06T11:26:48;12.23;;;10.80;;
57047;SDS011;42934;54.294;18.598;2023-08-06T11:29:18;12.32;;;11.02;;
57047;SDS011;42934;54.294;18.598;2023-08-06T11:31:48;12.85;;;10.63;;
57047;SDS011;42934;54.294;18.598;2023-08-06T11:34:18;11.88;;;10.70;;
57047;SDS011;42934;54.294;18.598;2023-08-06T11:36:49;13.98;;;11.43;;
57047;SDS011;42934;54.294;18.598;2023-08-06T11:39:18;12.55;;;11.25;;
57047;SDS011;42934;54.294;18.598;2023-08-06T11:41:47;14.27;;;11.93;;
57047;SDS011;42934;54.294;18.598;2023-08-06T11:44:18;13.52;;;12.05;;
57047;SDS011;42934;54.294;18.598;2023-08-06T11:46:49;14.10;;;11.65;;
57047;SDS011;42934;54.294;18.598;2023-08-06T11:49:20;13.35;;;10.90;;
57047;SDS011;42934;54.294;18.598;2023-08-06T11:52:10;16.10;;;11.77;;
57047;SDS011;42934;54.294;18.598;2023-08-06T11:54:42;13.75;;;12.00;;
57047;SDS011;42934;54.294;18.598;2023-08-06T11:57:11;13.50;;;12.00;;
57047;SDS011;42934;54.294;18.598;2023-08-06T11:59:44;13.23;;;11.65;;
57047;SDS011;42934;54.294;18.598;2023-08-06T12:02:14;13.38;;;12.02;;
57047;SDS011;42934;54.294;18.598;2023-08-06T12:07:28;14.35;;;12.13;;
57047;SDS011;42934;54.294;18.598;2023-08-06T12:09:58;16.15;;;11.70;;
57047;SDS011;42934;54.294;18.598;2023-08-06T12:12:28;14.52;;;12.25;;
57047;SDS011;42934;54.294;18.598;2023-08-06T12:14:58;13.13;;;11.73;;
57047;SDS011;42934;54.294;18.598;2023-08-06T12:17:27;16.80;;;11.73;;
57047;SDS011;42934;54.294;18.598;2023-08-06T12:19:56;14.10;;;12.10;;
57047;SDS011;42934;54.294;18.598;2023-08-06T12:22:26;12.88;;;11.65;;
57047;SDS011;42934;54.294;18.598;2023-08-06T12:24:59;13.85;;;11.68;;
57047;SDS011;42934;54.294;18.598;2023-08-06T12:27:29;16.00;;;12.77;;
57047;SDS011;42934;54.294;18.598;2023-08-06T12:29:58;14.82;;;13.05;;
57047;SDS011;42934;54.294;18.598;2023-08-06T12:32:27;18.05;;;13.07;;
57047;SDS011;42934;54.294;18.598;2023-08-06T12:34:57;14.00;;;12.23;;
57047;SDS011;42934;54.294;18.598;2023-08-06T12:37:28;13.20;;;11.50;;
57047;SDS011;42934;54.294;18.598;2023-08-06T12:39:58;15.27;;;11.75;;
57047;SDS011;42934;54.294;18.598;2023-08-06T12:42:45;16.20;;;12.15;;
57047;SDS011;42934;54.294;18.598;2023-08-06T12:45:16;18.30;;;12.18;;
57047;SDS011;42934;54.294;18.598;2023-08-06T12:47:48;13.80;;;12.35;;
57047;SDS011;42934;54.294;18.598;2023-08-06T12:50:18;13.23;;;11.35;;
57047;SDS011;42934;54.294;18.598;2023-08-06T12:52:48;16.42;;;13.15;;
57047;SDS011;42934;54.294;18.598;2023-08-06T12:55:18;15.43;;;13.30;;
57047;SDS011;42934;54.294;18.598;2023-08-06T12:57:49;22.27;;;12.90;;
57047;SDS011;42934;54.294;18.598;2023-08-06T13:00:25;15.57;;;12.20;;
57047;SDS011;42934;54.294;18.598;2023-08-06T13:05:24;14.23;;;11.75;;
57047;SDS011;42934;54.294;18.598;2023-08-06T13:07:54;14.48;;;12.68;;
57047;SDS011;42934;54.294;18.598;2023-08-06T13:10:24;14.80;;;12.50;;
57047;SDS011;42934;54.294;18.598;2023-08-06T13:12:55;13.75;;;12.35;;
57047;SDS011;42934;54.294;18.598;2023-08-06T13:15:24;14.02;;;12.50;;
57047;SDS011;42934;54.294;18.598;2023-08-06T13:17:53;16.27;;;12.88;;
57047;SDS011;42934;54.294;18.598;2023-08-06T13:20:23;16.42;;;13.32;;
57047;SDS011;42934;54.294;18.598;2023-08-06T13:22:52;19.77;;;13.55;;
57047;SDS011;42934;54.294;18.598;2023-08-06T13:25:23;15.52;;;13.43;;
57047;SDS011;42934;54.294;18.598;2023-08-06T13:27:52;16.17;;;12.60;;
57047;SDS011;42934;54.294;18.598;2023-08-06T13:30:21;12.80;;;11.50;;
57047;SDS011;42934;54.294;18.598;2023-08-06T13:32:50;13.27;;;11.90;;
57047;SDS011;42934;54.294;18.598;2023-08-06T13:35:20;13.38;;;11.80;;
57047;SDS011;42934;54.294;18.598;2023-08-06T13:37:49;15.70;;;12.98;;
57047;SDS011;42934;54.294;18.598;2023-08-06T13:40:21;14.15;;;11.85;;
57047;SDS011;42934;54.294;18.598;2023-08-06T13:42:51;13.35;;;11.95;;
57047;SDS011;42934;54.294;18.598;2023-08-06T13:45:21;13.35;;;11.95;;
57047;SDS011;42934;54.294;18.598;2023-08-06T13:47:50;12.65;;;11.35;;
57047;SDS011;42934;54.294;18.598;2023-08-06T13:50:20;12.85;;;11.45;;
57047;SDS011;42934;54.294;18.598;2023-08-06T13:52:52;14.85;;;11.98;;
57047;SDS011;42934;54.294;18.598;2023-08-06T13:55:24;17.77;;;11.55;;
57047;SDS011;42934;54.294;18.598;2023-08-06T13:57:53;13.10;;;11.55;;
57047;SDS011;42934;54.294;18.598;2023-08-06T14:00:24;13.20;;;10.95;;
57047;SDS011;42934;54.294;18.598;2023-08-06T14:02:53;12.88;;;11.68;;
57047;SDS011;42934;54.294;18.598;2023-08-06T14:05:22;13.00;;;11.70;;
57047;SDS011;42934;54.294;18.598;2023-08-06T14:07:52;16.13;;;12.05;;
57047;SDS011;42934;54.294;18.598;2023-08-06T14:10:21;12.55;;;11.35;;
57047;SDS011;42934;54.294;18.598;2023-08-06T14:12:52;13.90;;;11.55;;
57047;SDS011;42934;54.294;18.598;2023-08-06T14:15:35;12.90;;;11.60;;
57047;SDS011;42934;54.294;18.598;2023-08-06T14:18:06;13.70;;;12.07;;
57047;SDS011;42934;54.294;18.598;2023-08-06T14:20:36;15.93;;;12.35;;
57047;SDS011;42934;54.294;18.598;2023-08-06T14:23:05;15.35;;;12.65;;
57047;SDS011;42934;54.294;18.598;2023-08-06T14:25:36;14.07;;;12.77;;
57047;SDS011;42934;54.294;18.598;2023-08-06T14:28:06;14.15;;;12.65;;
57047;SDS011;42934;54.294;18.598;2023-08-06T14:30:35;18.35;;;13.38;;
57047;SDS011;42934;54.294;18.598;2023-08-06T14:33:05;15.25;;;12.90;;
57047;SDS011;42934;54.294;18.598;2023-08-06T14:35:53;15.82;;;12.60;;
57047;SDS011;42934;54.294;18.598;2023-08-06T14:38:22;15.63;;;14.02;;
57047;SDS011;42934;54.294;18.598;2023-08-06T14:40:53;15.38;;;13.43;;
57047;SDS011;42934;54.294;18.598;2023-08-06T14:43:22;20.58;;;13.43;;
57047;SDS011;42934;54.294;18.598;2023-08-06T14:45:51;14.88;;;13.48;;
57047;SDS011;42934;54.294;18.598;2023-08-06T14:48:20;16.40;;;14.70;;
57047;SDS011;42934;54.294;18.598;2023-08-06T14:50:50;16.88;;;14.55;;
57047;SDS011;42934;54.294;18.598;2023-08-06T14:53:19;15.70;;;14.18;;
57047;SDS011;42934;54.294;18.598;2023-08-06T14:55:48;17.38;;;14.77;;
57047;SDS011;42934;54.294;18.598;2023-08-06T14:58:19;16.92;;;15.13;;
57047;SDS011;42934;54.294;18.598;2023-08-06T15:00:48;19.00;;;16.42;;
57047;SDS011;42934;54.294;18.598;2023-08-06T15:03:17;17.10;;;15.50;;
57047;SDS011;42934;54.294;18.598;2023-08-06T15:05:47;20.13;;;17.17;;
57047;SDS011;42934;54.294;18.598;2023-08-06T15:08:17;17.17;;;15.45;;
57047;SDS011;42934;54.294;18.598;2023-08-06T15:10:49;19.15;;;16.27;;